Time;durP1;ratioP1;P1;durP2;ratioP2;P2;SDS_P1;SDS_P2;PMS_P1;PMS_P2;Temp;Humidity;BMP_temperature;BMP_pressure;BME280_temperature;BME280_humidity;BME280_pressure;Samples;Min_cycle;Max_cycle;Signal;HPM_P1;HPM_P2
2022/06/01 00:00:39;;;;;;;7.87;3.90;;;;;;;16.12;100.00;62520.25;5094740;28;20200;-74
2022/06/01 00:03:06;;;;;;;9.03;4.17;;;;;;;15.83;100.00;62495.22;5094761;28;20203;-75
2022/06/01 00:05:33;;;;;;;5.63;4.03;;;;;;;15.62;100.00;62470.03;5094269;28;20216;-73
2022/06/01 00:08:01;;;;;;;6.80;4.53;;;;;;;15.70;100.00;62481.22;5093482;28;20200;-75
2022/06/01 00:10:30;;;;;;;7.30;4.40;;;;;;;15.89;100.00;62498.59;5094867;28;20351;-73
2022/06/01 00:12:57;;;;;;;7.37;4.17;;;;;;;15.92;100.00;62504.91;5094779;28;20590;-74
2022/06/01 00:15:28;;;;;;;12.17;4.00;;;;;;;15.58;100.00;62468.31;5076377;28;20209;-74
2022/06/01 00:17:58;;;;;;;4.27;3.63;;;;;;;15.33;100.00;62438.81;5094552;28;20292;-74
2022/06/01 00:20:26;;;;;;;10.80;4.10;;;;;;;15.69;100.00;62477.59;5094430;28;20250;-74
2022/06/01 00:22:52;;;;;;;11.53;3.40;;;;;;;15.68;100.00;62481.63;5094697;28;20268;-74
2022/06/01 00:25:19;;;;;;;7.60;3.73;;;;;;;15.14;100.00;62418.91;5094486;28;20200;-73
2022/06/01 00:27:47;;;;;;;9.40;4.27;;;;;;;15.78;100.00;62487.28;5094362;28;20260;-74
2022/06/01 00:30:17;;;;;;;7.07;3.70;;;;;;;15.91;100.00;62505.88;5094467;28;20227;-74
2022/06/01 00:32:45;;;;;;;6.63;3.53;;;;;;;15.77;100.00;62488.78;5094451;28;20204;-73
2022/06/01 00:35:18;;;;;;;8.07;5.27;;;;;;;15.65;100.00;62473.28;5093962;28;20235;-74
2022/06/01 00:37:46;;;;;;;6.27;3.63;;;;;;;15.61;100.00;62468.97;5093680;28;20701;-74
2022/06/01 00:40:16;;;;;;;7.53;3.70;;;;;;;15.58;100.00;62468.31;5094298;28;20212;-74
2022/06/01 00:42:46;;;;;;;8.30;4.23;;;;;;;15.43;100.00;62452.16;5093915;28;20756;-74
2022/06/01 00:45:18;;;;;;;9.80;4.17;;;;;;;15.27;100.00;62438.03;5094057;28;20212;-74
2022/06/01 00:47:45;;;;;;;7.67;4.10;;;;;;;15.27;100.00;62434.38;5094059;28;20203;-74
2022/06/01 00:50:18;;;;;;;7.63;4.10;;;;;;;15.46;100.00;62447.69;5093869;28;20666;-74
2022/06/01 00:52:53;;;;;;;8.10;4.37;;;;;;;15.60;100.00;62470.47;5076373;28;20199;-74
2022/06/01 00:55:26;;;;;;;11.73;5.50;;;;;;;15.45;100.00;62451.75;5094015;28;20195;-73
2022/06/01 00:57:58;;;;;;;7.73;5.10;;;;;;;15.45;100.00;62451.22;5093715;28;20284;-74
2022/06/01 01:00:28;;;;;;;11.73;5.63;;;;;;;15.53;100.00;62460.38;5094138;28;20629;-73
2022/06/01 01:02:57;;;;;;;11.47;5.90;;;;;;;15.29;100.00;62433.97;5093687;28;20199;-74
2022/06/01 01:05:27;;;;;;;6.27;4.90;;;;;;;15.63;100.00;62471.13;5093727;28;20207;-75
2022/06/01 01:07:58;;;;;;;8.03;4.10;;;;;;;15.64;100.00;62471.66;5092871;28;20290;-73
2022/06/01 01:10:25;;;;;;;10.80;4.13;;;;;;;15.57;100.00;62462.09;5093235;28;20199;-74
2022/06/01 01:13:01;;;;;;;8.40;4.30;;;;;;;15.04;100.00;62408.16;5093943;28;20605;-74
2022/06/01 01:15:31;;;;;;;8.33;4.33;;;;;;;15.39;100.00;62444.72;5093905;28;20304;-73
2022/06/01 01:17:59;;;;;;;8.80;4.37;;;;;;;15.16;100.00;62426.19;5093388;28;20706;-74
2022/06/01 01:20:28;;;;;;;8.67;5.20;;;;;;;15.13;100.00;62422.94;5093261;28;20253;-74
2022/06/01 01:23:07;;;;;;;7.23;3.90;;;;;;;15.13;100.00;62414.72;5093594;28;20200;-73
2022/06/01 01:25:38;;;;;;;7.90;4.40;;;;;;;15.08;100.00;62412.44;5093124;28;20642;-73
2022/06/01 01:28:09;;;;;;;5.20;3.90;;;;;;;15.08;100.00;62409.34;5093483;28;20286;-74
2022/06/01 01:30:51;;;;;;;11.97;4.03;;;;;;;15.12;100.00;62414.19;5093228;28;20227;-73
2022/06/01 01:33:21;;;;;;;5.83;3.80;;;;;;;15.20;100.00;62422.25;5093010;28;20640;-76
2022/06/01 01:35:51;;;;;;;20.00;4.40;;;;;;;14.82;100.00;62387.03;5092930;28;20203;-75
2022/06/01 01:38:30;;;;;;;10.80;4.53;;;;;;;15.11;100.00;62415.16;5092967;28;20231;-74
2022/06/01 01:41:22;;;;;;;8.87;4.03;;;;;;;14.81;100.00;62383.38;5093144;28;20203;-76
2022/06/01 01:43:55;;;;;;;8.47;3.90;;;;;;;14.59;100.00;62359.72;5093240;28;20203;-75
2022/06/01 01:46:22;;;;;;;12.10;4.07;;;;;;;14.86;100.00;62388.22;5092451;28;20286;-74
2022/06/01 01:48:49;;;;;;;11.67;3.83;;;;;;;15.01;100.00;62404.38;5092886;28;20200;-75
2022/06/01 01:51:20;;;;;;;11.23;4.27;;;;;;;15.18;100.00;62427.78;5092716;28;20278;-74
2022/06/01 01:53:47;;;;;;;10.17;3.90;;;;;;;15.16;100.00;62426.19;5084746;28;20939;-74
2022/06/01 01:56:28;;;;;;;5.60;4.33;;;;;;;15.30;100.00;62435.03;5092707;28;20199;-76
2022/06/01 01:59:10;;;;;;;12.93;4.33;;;;;;;15.00;100.00;62408.44;5092452;28;20280;-77
2022/06/01 02:01:47;;;;;;;9.60;4.13;;;;;;;15.38;100.00;62446.75;5092466;28;20265;-74
2022/06/01 02:07:10;;;;;;;14.00;4.80;;;;;;;14.69;100.00;62375.09;5092951;28;20321;-78
2022/06/01 02:15:07;;;;;;;11.37;6.93;;;;;;;15.00;100.00;62406.41;5092461;28;20665;-77
2022/06/01 02:17:38;;;;;;;10.07;7.00;;;;;;;14.68;100.00;62366.84;5092566;28;20272;-73
2022/06/01 02:20:10;;;;;;;10.60;6.63;;;;;;;14.92;100.00;62394.69;5092485;28;20249;-73
2022/06/01 02:22:38;;;;;;;10.87;6.57;;;;;;;15.21;100.00;62426.44;5092594;28;20202;-74
2022/06/01 02:25:07;;;;;;;12.53;6.40;;;;;;;15.10;100.00;62414.06;5092067;28;20192;-74
2022/06/01 02:27:36;;;;;;;9.17;5.77;;;;;;;14.80;100.00;62382.31;5091833;28;20208;-74
2022/06/01 02:30:09;;;;;;;11.23;6.77;;;;;;;14.84;100.00;62386.09;5091720;28;20679;-73
2022/06/01 02:32:37;;;;;;;10.23;6.60;;;;;;;14.62;100.00;62362.97;5092349;28;20208;-73
2022/06/01 02:35:08;;;;;;;10.03;6.70;;;;;;;14.79;100.00;62380.72;5092604;28;20204;-74
2022/06/01 02:37:39;;;;;;;9.93;7.23;;;;;;;14.82;100.00;62389.06;5080902;28;20203;-73
2022/06/01 02:40:10;;;;;;;14.47;9.10;;;;;;;14.80;100.00;62382.31;5095148;28;20227;-74
2022/06/01 02:42:46;;;;;;;11.97;8.60;;;;;;;14.48;100.00;62347.91;5092410;28;20211;-75
2022/06/01 02:45:14;;;;;;;12.37;8.77;;;;;;;14.76;100.00;62380.03;5092171;28;20636;-74
2022/06/01 02:47:43;;;;;;;15.70;9.30;;;;;;;14.85;100.00;62387.16;5091994;28;20699;-73
2022/06/01 02:50:14;;;;;;;11.60;9.10;;;;;;;14.66;100.00;62366.72;5091741;28;20203;-74
2022/06/01 02:52:41;;;;;;;11.93;8.57;;;;;;;14.79;100.00;62380.72;5091754;28;20211;-75
2022/06/01 02:55:11;;;;;;;13.27;8.07;;;;;;;14.78;100.00;62379.63;5091764;28;20196;-73
2022/06/01 02:57:40;;;;;;;11.97;7.40;;;;;;;14.89;100.00;62391.47;5091624;28;20273;-74
2022/06/01 03:00:17;;;;;;;13.10;7.50;;;;;;;14.85;100.00;62387.16;5090552;28;20231;-75
2022/06/01 03:02:44;;;;;;;13.20;7.93;;;;;;;14.81;100.00;62383.38;5090984;28;20195;-74
2022/06/01 03:05:11;;;;;;;10.20;8.50;;;;;;;14.79;100.00;62380.72;5091777;28;20195;-74
2022/06/01 03:07:40;;;;;;;11.67;8.37;;;;;;;14.79;100.00;62381.25;5091314;28;20252;-73
2022/06/01 03:10:07;;;;;;;12.30;7.90;;;;;;;14.90;100.00;62397.66;5091543;28;20208;-75
2022/06/01 03:12:34;;;;;;;11.30;7.80;;;;;;;14.92;100.00;62392.13;5091520;28;20203;-77
2022/06/01 03:15:01;;;;;;;12.57;7.70;;;;;;;14.91;100.00;62396.72;5091546;28;20612;-73
2022/06/01 03:17:30;;;;;;;14.87;8.00;;;;;;;15.10;100.00;62417.16;5091021;28;20207;-75
2022/06/01 03:19:57;;;;;;;12.90;8.57;;;;;;;14.98;100.00;62398.59;5091298;28;20281;-75
2022/06/01 03:22:25;;;;;;;11.70;8.50;;;;;;;14.49;100.00;62346.41;5091748;28;20252;-73
2022/06/01 03:24:52;;;;;;;13.90;9.23;;;;;;;14.99;100.00;62402.22;5091486;28;20261;-74
2022/06/01 03:27:19;;;;;;;25.70;13.87;;;;;;;15.09;100.00;62413.00;5097570;28;20743;-75
2022/06/01 03:29:46;;;;;;;25.77;12.77;;;;;;;15.23;100.00;62428.06;5094011;28;20223;-74
2022/06/01 03:32:13;;;;;;;22.80;13.33;;;;;;;13.30;100.00;62224.16;5091598;28;20238;-73
2022/06/01 03:34:41;;;;;;;23.53;12.43;;;;;;;15.15;100.00;62422.53;5091507;28;20336;-74
2022/06/01 03:37:08;;;;;;;15.40;9.50;;;;;;;15.30;100.00;62435.03;5091742;28;20200;-74
2022/06/01 03:39:35;;;;;;;18.40;9.60;;;;;;;15.38;100.00;62441.63;5090984;28;20227;-74
2022/06/01 03:42:03;;;;;;;18.27;7.07;;;;;;;15.40;100.00;62446.34;5091334;28;20195;-74
2022/06/01 03:47:14;;;;;;;16.37;8.90;;;;;;;14.82;100.00;62389.06;5091592;28;20211;-74
2022/06/01 03:49:46;;;;;;;10.80;7.10;;;;;;;15.34;100.00;62439.34;5091085;28;20191;-73
2022/06/01 03:52:13;;;;;;;10.67;4.50;;;;;;;15.31;100.00;62436.66;5091211;28;20203;-74
2022/06/01 03:54:40;;;;;;;6.37;4.90;;;;;;;15.24;100.00;62429.66;5091034;28;20203;-75
2022/06/01 03:57:11;;;;;;;7.93;4.93;;;;;;;15.13;100.00;62422.94;5091596;28;20250;-74
2022/06/01 03:59:41;;;;;;;7.97;3.80;;;;;;;15.49;100.00;62456.06;5090979;28;20249;-74
2022/06/01 04:02:12;;;;;;;8.33;5.03;;;;;;;15.57;100.00;62462.09;5091347;28;20284;-73
2022/06/01 04:04:39;;;;;;;6.33;4.13;;;;;;;15.73;100.00;62484.47;5074281;28;20199;-74
2022/06/01 04:07:07;;;;;;;6.33;4.20;;;;;;;15.90;100.00;62505.34;5091141;28;20211;-75
2022/06/01 04:09:34;;;;;;;8.43;4.17;;;;;;;16.00;100.00;62513.53;5090779;28;20196;-74
2022/06/01 04:12:01;;;;;;;12.23;6.33;;;;;;;16.21;100.00;62532.50;5092980;28;20755;-74
2022/06/01 04:14:28;;;;;;;18.80;7.67;;;;;;;16.05;100.00;62518.38;5094617;28;20208;-74
2022/06/01 04:16:55;;;;;;;10.17;5.33;;;;;;;16.32;100.00;62544.38;5094851;28;20264;-75
2022/06/01 04:19:23;;;;;;;15.30;7.50;;;;;;;16.29;100.00;62543.69;5094567;28;20284;-75
2022/06/01 04:21:55;;;;;;;17.77;7.37;;;;;;;16.42;100.00;62557.72;5094311;28;20659;-73
2022/06/01 04:24:28;;;;;;;12.10;6.20;;;;;;;16.49;100.00;62568.38;5094771;28;20578;-77
2022/06/01 04:26:56;;;;;;;16.13;6.40;;;;;;;16.61;100.00;62580.75;5094563;28;20242;-73
2022/06/01 04:29:23;;;;;;;19.73;8.00;;;;;;;15.77;100.00;62488.78;5094134;28;20231;-75
2022/06/01 04:31:50;;;;;;;16.53;10.27;;;;;;;16.69;100.00;62586.81;5094189;28;20204;-74
2022/06/01 04:34:17;;;;;;;19.43;11.10;;;;;;;16.58;100.00;62572.91;5094177;28;20268;-74
2022/06/01 04:36:44;;;;;;;22.10;11.83;;;;;;;16.59;100.00;62573.47;5094117;28;20260;-73
2022/06/01 04:39:11;;;;;;;18.90;10.87;;;;;;;16.64;100.00;62581.97;5093916;28;20310;-74
2022/06/01 04:41:41;;;;;;;23.30;11.57;;;;;;;16.75;100.00;62590.72;5094104;28;20608;-74
2022/06/01 04:44:08;;;;;;;32.27;11.23;;;;;;;16.96;100.00;62610.78;5093839;28;20269;-74
2022/06/01 04:46:36;;;;;;;18.17;9.87;;;;;;;17.08;100.00;62625.75;5094034;28;20200;-75
2022/06/01 04:49:03;;;;;;;19.23;10.17;;;;;;;16.92;100.00;62614.19;5093943;28;20214;-74
2022/06/01 04:51:31;;;;;;;20.60;10.03;;;;;;;17.21;100.00;62639.75;5094427;28;20196;-76
2022/06/01 04:54:00;;;;;;;16.63;7.67;;;;;;;17.40;100.00;62660.25;5093891;28;20670;-73
2022/06/01 04:56:27;;;;;;;14.40;8.10;;;;;;;17.80;100.00;62703.41;5093606;28;20196;-74
2022/06/01 04:58:56;;;;;;;9.07;6.27;;;;;;;18.09;100.00;62736.75;5093778;28;20227;-74
2022/06/01 05:01:23;;;;;;;12.93;7.17;;;;;;;18.13;100.00;62739.00;5093519;28;20196;-75
2022/06/01 05:03:51;;;;;;;12.43;6.63;;;;;;;18.33;100.00;62754.91;5093708;28;20670;-74
2022/06/01 05:06:17;;;;;;;10.33;6.13;;;;;;;18.34;100.00;62761.16;5093723;28;20195;-75
2022/06/01 05:08:46;;;;;;;11.87;6.23;;;;;;;18.54;100.00;62782.75;5075559;28;20207;-74
2022/06/01 05:11:12;;;;;;;8.37;5.07;;;;;;;18.67;100.00;62801.97;5095953;28;20204;-72
2022/06/01 05:13:39;;;;;;;9.63;4.97;;;;;;;18.95;100.00;62826.50;5098260;28;20204;-73
2022/06/01 05:16:08;;;;;;;14.20;5.30;;;;;;;19.00;100.00;62832.41;5093446;28;20257;-73
2022/06/01 05:18:35;;;;;;;13.50;5.37;;;;;;;19.18;100.00;62846.69;5093530;28;20199;-73
2022/06/01 05:21:02;;;;;;;10.10;4.43;;;;;;;19.49;100.00;62889.47;5093240;28;20223;-74
2022/06/01 05:23:29;;;;;;;7.07;3.93;;;;;;;19.60;100.00;62901.38;5092414;28;20199;-74
2022/06/01 05:25:56;;;;;;;7.53;4.00;;;;;;;19.74;100.00;62911.31;5092883;28;20240;-73
2022/06/01 05:28:26;;;;;;;9.80;4.20;;;;;;;19.69;100.00;62905.91;5093470;28;20294;-74
2022/06/01 05:30:57;;;;;;;7.20;5.07;;;;;;;19.70;100.00;62907.00;5093039;28;20243;-74
2022/06/01 05:33:25;;;;;;;10.87;4.30;;;;;;;19.86;100.00;62924.28;5093183;28;20199;-75
2022/06/01 05:35:52;;;;;;;12.17;5.30;;;;;;;20.15;100.00;62955.63;5092873;28;20682;-74
2022/06/01 05:38:19;;;;;;;17.30;6.03;;;;;;;20.33;100.00;62975.13;5093011;28;20219;-74
2022/06/01 05:40:47;;;;;;;11.90;5.87;;;;;;;20.07;100.00;62944.41;5092614;28;20738;-73
2022/06/01 05:43:16;;;;;;;12.00;7.20;;;;;;;20.17;100.00;62957.78;5093513;28;20647;-75
2022/06/01 05:45:43;;;;;;;14.03;7.60;;;;;;;20.71;100.00;63013.63;5093742;28;20200;-73
2022/06/01 05:48:11;;;;;;;9.80;6.70;;;;;;;20.95;100.00;63041.63;5092850;28;20757;-73
2022/06/01 05:50:40;;;;;;;17.70;7.57;;;;;;;20.74;100.00;63022.06;5092766;28;20567;-74
2022/06/01 05:53:08;;;;;;;14.17;7.27;;;;;;;20.88;100.00;63034.06;5092738;28;20196;-73
2022/06/01 05:55:36;;;;;;;11.70;6.70;;;;;;;20.46;100.00;62989.19;5092473;28;20210;-73
2022/06/01 05:58:03;;;;;;;13.83;7.20;;;;;;;20.72;100.00;63014.72;5092618;28;20196;-73
2022/06/01 06:00:30;;;;;;;18.13;8.33;;;;;;;20.93;100.00;63040.00;5092559;28;20291;-74
2022/06/01 06:02:56;;;;;;;17.30;9.00;;;;;;;20.58;100.00;62996.44;5092742;28;20291;-73
2022/06/01 06:08:09;;;;;;;25.87;11.50;;;;;;;20.63;100.00;63012.75;5092590;28;20288;-74
2022/06/01 06:10:37;;;;;;;20.67;11.53;;;;;;;21.00;100.00;63045.00;5092977;28;20253;-75
2022/06/01 06:13:04;;;;;;;20.10;12.90;;;;;;;20.92;100.00;63038.94;5095397;28;20639;-72
2022/06/01 06:15:31;;;;;;;26.50;12.47;;;;;;;20.98;100.00;63045.44;5093963;28;20256;-74
2022/06/01 06:17:58;;;;;;;22.23;12.00;;;;;;;21.11;100.00;63058.44;5092190;28;20200;-72
2022/06/01 06:20:25;;;;;;;21.90;12.83;;;;;;;21.13;100.00;63060.59;5092306;28;20227;-73
2022/06/01 06:22:52;;;;;;;25.00;13.23;;;;;;;21.35;100.00;63084.41;5092009;28;20200;-74
2022/06/01 06:25:20;;;;;;;28.07;12.73;;;;;;;20.55;100.00;62998.91;5092946;28;20207;-73
2022/06/01 06:27:47;;;;;;;19.67;11.73;;;;;;;21.46;100.00;63096.84;5094202;28;20260;-73
2022/06/01 06:30:18;;;;;;;21.40;10.43;;;;;;;21.55;100.00;63103.47;5093647;28;20285;-74
2022/06/01 06:32:45;;;;;;;19.37;11.03;;;;;;;21.47;100.00;63097.94;5093196;28;20210;-72
2022/06/01 06:35:12;;;;;;;23.47;12.00;;;;;;;21.75;100.00;63125.13;5091789;28;20246;-73
2022/06/01 06:37:39;;;;;;;16.20;10.00;;;;;;;21.85;100.00;63138.56;5092807;28;20212;-74
2022/06/01 06:40:07;;;;;;;14.50;10.20;;;;;;;22.19;100.00;63175.38;5091838;28;20296;-73
2022/06/01 06:42:35;;;;;;;18.83;10.33;;;;;;;21.77;100.00;63129.88;5091628;28;20207;-75
2022/06/01 06:45:03;;;;;;;20.60;10.13;;;;;;;22.17;100.00;63175.81;5091574;28;20585;-74
2022/06/01 06:47:32;;;;;;;20.90;10.43;;;;;;;21.64;100.00;63123.56;5091595;28;20195;-74
2022/06/01 06:49:59;;;;;;;19.37;10.37;;;;;;;22.23;100.00;63177.13;5091522;28;20279;-74
2022/06/01 06:52:26;;;;;;;13.70;10.07;;;;;;;22.57;100.00;63211.38;5092209;28;20203;-74
2022/06/01 06:54:54;;;;;;;16.63;10.47;;;;;;;22.45;100.00;63203.53;5096327;28;20336;-72
2022/06/01 06:57:21;;;;;;;16.10;10.13;;;;;;;22.36;100.00;63196.38;5099651;28;20219;-75
2022/06/01 06:59:53;;;;;;;25.83;9.90;;;;;;;22.05;100.00;63157.63;5091271;28;20318;-74
2022/06/01 07:02:20;;;;;;;22.10;10.80;;;;;;;22.33;100.00;63190.53;5091233;28;20200;-75
2022/06/01 07:04:47;;;;;;;16.30;10.30;;;;;;;22.02;100.00;63154.38;5091819;28;20196;-75
2022/06/01 07:07:14;;;;;;;12.97;9.93;;;;;;;21.86;100.00;63137.03;5091550;28;20743;-74
2022/06/01 07:09:41;;;;;;;16.30;9.87;;;;;;;22.47;100.00;63205.72;5091566;28;20200;-73
2022/06/01 07:12:10;;;;;;;21.70;10.20;;;;;;;22.74;100.00;63231.31;5091517;28;20199;-74
2022/06/01 07:14:37;;;;;;;19.80;9.87;;;;;;;22.87;100.00;63242.78;5091143;28;20206;-75
2022/06/01 07:17:06;;;;;;;15.20;10.03;;;;;;;22.93;100.00;63254.50;5091582;28;20273;-74
2022/06/01 07:19:33;;;;;;;16.00;9.57;;;;;;;23.29;100.00;63293.50;5091588;28;20203;-74
2022/06/01 07:22:00;;;;;;;18.70;10.13;;;;;;;23.40;100.00;63305.47;5091246;28;20200;-74
2022/06/01 07:24:30;;;;;;;10.73;9.47;;;;;;;23.70;100.00;63338.00;5091236;28;20759;-74
2022/06/01 07:26:58;;;;;;;20.57;10.60;;;;;;;23.86;100.00;63355.34;5091006;28;20204;-75
2022/06/01 07:29:25;;;;;;;16.63;9.47;;;;;;;23.77;100.00;63345.03;5091111;28;20268;-73
2022/06/01 07:31:52;;;;;;;24.37;10.67;;;;;;;23.89;100.00;63356.00;5090975;28;20233;-73
2022/06/01 07:34:20;;;;;;;23.77;10.70;;;;;;;24.11;100.00;63382.50;5091074;28;20196;-73
2022/06/01 07:36:48;;;;;;;33.50;10.33;;;;;;;23.82;100.00;63351.03;5090901;28;20206;-73
2022/06/01 07:44:52;;;;;;;27.30;10.13;;;;;;;24.78;100.00;63454.16;5057243;28;20199;-74
2022/06/01 07:47:20;;;;;;;16.40;10.13;;;;;;;24.17;100.00;63389.00;5093778;28;20326;-73
2022/06/01 07:49:48;;;;;;;17.67;10.13;;;;;;;24.02;100.00;63370.13;5095448;28;20208;-73
2022/06/01 07:52:15;;;;;;;17.27;9.67;;;;;;;24.01;100.00;63366.41;5076736;28;20212;-72
2022/06/01 07:54:43;;;;;;;15.50;9.73;;;;;;;24.02;100.00;63369.56;5094808;28;20192;-73
2022/06/01 07:57:11;;;;;;;18.20;9.60;;;;;;;24.00;100.00;63365.34;5095301;28;20245;-74
2022/06/01 07:59:39;;;;;;;19.23;9.83;;;;;;;23.11;100.00;63271.41;5094727;28;20650;-73
2022/06/01 08:02:09;;;;;;;32.53;11.03;;;;;;;23.59;100.00;63326.06;5094955;28;20203;-74
2022/06/01 08:04:38;;;;;;;19.20;9.33;;;;;;;24.04;100.00;63372.31;5094645;28;20202;-74
2022/06/01 08:07:06;;;;;;;23.93;9.53;;;;;;;24.42;100.00;63415.03;5094573;28;20207;-73
2022/06/01 08:09:33;;;;;;;19.27;9.57;;;;;;;24.64;100.00;63438.94;5094560;28;20196;-72
2022/06/01 08:14:44;;;;;;;20.93;10.30;;;;;;;25.53;100.00;63535.06;5094582;28;20280;-73
2022/06/01 08:17:11;;;;;;;23.07;10.70;;;;;;;25.74;100.00;63553.22;5094061;28;20656;-74
2022/06/01 08:19:38;;;;;;;23.90;9.87;;;;;;;25.27;100.00;63507.38;5094082;28;20202;-73
2022/06/01 08:22:07;;;;;;;26.27;9.43;;;;;;;25.02;100.00;63480.19;5094730;28;20193;-73
2022/06/01 08:24:34;;;;;;;21.27;12.50;;;;;;;25.05;100.00;63484.00;5094581;28;20208;-74
2022/06/01 08:27:01;;;;;;;20.73;9.73;;;;;;;25.53;100.00;63530.41;5094592;28;20199;-73
2022/06/01 08:29:29;;;;;;;15.50;9.93;;;;;;;25.53;100.00;63535.06;5094413;28;20229;-73
2022/06/01 08:31:56;;;;;;;21.03;11.03;;;;;;;25.71;100.00;63552.56;5094092;28;20196;-73
2022/06/01 08:34:23;;;;;;;18.67;11.20;;;;;;;25.85;100.00;63564.63;5094700;28;20206;-73
2022/06/01 08:36:49;;;;;;;18.73;10.53;;;;;;;25.89;100.00;63574.19;5098647;28;20198;-73
2022/06/01 08:39:18;;;;;;;14.97;9.13;;;;;;;26.14;100.00;63600.84;5098447;28;20223;-74
2022/06/01 08:41:45;;;;;;;16.90;8.17;;;;;;;26.45;100.00;63635.06;5094150;28;20227;-73
2022/06/01 08:44:23;;;;;;;23.87;9.93;;;;;;;26.31;100.00;63621.94;5094203;28;20226;-72
2022/06/01 08:46:50;;;;;;;14.97;8.90;;;;;;;26.40;100.00;63623.88;5093961;28;20227;-73
2022/06/01 08:49:27;;;;;;;20.27;9.23;;;;;;;26.12;100.00;63599.19;5094079;28;20204;-72
2022/06/01 08:51:55;;;;;;;23.43;9.27;;;;;;;26.58;100.00;63648.69;5093679;28;20686;-74
2022/06/01 08:54:23;;;;;;;27.90;9.53;;;;;;;26.76;100.00;63665.66;5093785;28;20671;-74
2022/06/01 08:56:53;;;;;;;18.93;8.70;;;;;;;27.32;100.00;63729.19;5094956;28;20200;-74
2022/06/01 08:59:30;;;;;;;15.33;7.97;;;;;;;27.06;100.00;63702.97;5093425;28;20697;-73
2022/06/01 09:02:05;;;;;;;16.40;7.80;;;;;;;27.12;100.00;63707.44;5093519;28;20297;-73
2022/06/01 09:04:40;;;;;;;11.50;7.20;;;;;;;27.58;100.00;63754.31;5093649;28;20199;-73
2022/06/01 09:07:21;;;;;;;14.93;6.57;;;;;;;27.75;100.00;63774.91;5093725;28;20200;-74
2022/06/01 09:10:15;;;;;;;10.27;5.80;;;;;;;28.18;100.00;63816.47;5093384;28;20670;-75
2022/06/01 09:12:43;;;;;;;11.70;5.87;;;;;;;27.91;100.00;63787.09;5093566;28;20263;-74
2022/06/01 09:15:17;;;;;;;9.70;6.00;;;;;;;27.11;100.00;63708.94;5093603;28;20208;-74
2022/06/01 09:17:44;;;;;;;14.77;6.23;;;;;;;27.56;100.00;63754.78;5093014;28;20196;-74
2022/06/01 09:23:05;;;;;;;9.80;5.63;;;;;;;28.20;100.00;63829.16;5017603;28;20202;-73
2022/06/01 09:25:35;;;;;;;18.33;6.50;;;;;;;28.60;100.00;63867.47;5093769;28;20199;-73
2022/06/01 09:28:06;;;;;;;17.53;6.23;;;;;;;28.69;100.00;63879.38;5092960;28;20286;-74
2022/06/01 09:30:37;;;;;;;9.43;5.57;;;;;;;29.06;100.00;63917.59;5093126;28;20239;-75
2022/06/01 09:33:13;;;;;;;11.07;5.20;;;;;;;29.40;100.00;63953.59;5093224;28;20196;-75
2022/06/01 09:35:44;;;;;;;14.87;5.17;;;;;;;29.49;100.00;63974.44;5092409;28;20197;-73
2022/06/01 09:38:19;;;;;;;15.40;4.97;;;;;;;29.66;100.00;63981.94;5092783;28;20704;-74
2022/06/01 09:41:01;;;;;;;11.57;5.50;;;;;;;29.47;100.00;63961.22;5092674;28;20240;-72
2022/06/01 09:43:28;;;;;;;8.13;4.63;;;;;;;29.36;100.00;63949.75;5074946;28;20683;-73
2022/06/01 09:45:55;;;;;;;11.00;5.00;;;;;;;29.55;100.00;63969.94;5092962;28;20204;-74
2022/06/01 09:48:27;;;;;;;9.40;4.90;;;;;;;29.38;100.00;63954.03;5093031;28;20535;-75
2022/06/01 09:51:13;;;;;;;8.07;4.60;;;;;;;30.15;100.00;64035.38;5093893;28;20255;-74
2022/06/01 09:53:43;;;;;;;11.30;5.20;;;;;;;30.00;100.00;64019.00;5093962;28;20224;-74
2022/06/01 09:56:13;;;;;;;10.97;4.40;;;;;;;30.17;100.00;64034.91;5093343;28;20250;-75
2022/06/01 10:07:21;;;;;;;8.53;4.47;;;;;;;30.10;100.00;64029.91;5092805;28;20208;-74
2022/06/01 10:09:53;;;;;;;8.93;4.60;;;;;;;30.10;100.00;64027.28;5083008;28;20211;-75
2022/06/01 10:12:33;;;;;;;7.23;4.03;;;;;;;30.21;100.00;64041.91;5092583;28;20255;-74
2022/06/01 10:15:02;;;;;;;12.03;3.40;;;;;;;30.31;100.00;64052.84;5092383;28;20210;-73
2022/06/01 10:17:33;;;;;;;8.83;3.67;;;;;;;30.52;100.00;64073.13;5092276;28;20203;-74
2022/06/01 10:20:14;;;;;;;7.33;3.53;;;;;;;30.67;100.00;64089.47;5100216;28;20690;-74
2022/06/01 10:22:46;;;;;;;5.57;3.10;;;;;;;30.69;100.00;64094.28;5078325;28;20682;-73
2022/06/01 10:25:18;;;;;;;5.13;2.70;;;;;;;30.87;100.00;64115.50;5092698;28;20196;-73
2022/06/01 10:27:58;;;;;;;13.80;7.43;;;;;;;30.54;100.00;64077.38;5092026;28;20198;-74
2022/06/01 10:30:28;;;;;;;9.47;3.80;;;;;;;30.18;100.00;64038.66;5092339;28;20240;-76
2022/06/01 10:33:00;;;;;;;13.00;4.57;;;;;;;30.00;100.00;64014.28;5092136;28;20214;-74
2022/06/01 10:35:37;;;;;;;7.90;4.00;;;;;;;30.42;100.00;64064.84;5091920;28;20650;-74
2022/06/01 10:38:12;;;;;;;15.17;4.20;;;;;;;30.93;100.00;64114.69;5091803;28;20219;-75
2022/06/01 10:40:53;;;;;;;10.30;3.97;;;;;;;31.36;100.00;64166.34;5092087;28;20223;-74
2022/06/01 10:43:35;;;;;;;6.80;3.10;;;;;;;31.35;100.00;64160.50;5092280;28;20200;-75
2022/06/01 10:46:10;;;;;;;8.93;3.17;;;;;;;31.49;100.00;64178.44;5092151;28;20748;-74
2022/06/01 10:48:45;;;;;;;4.80;2.60;;;;;;;30.87;100.00;64112.88;5078802;28;20627;-73
2022/06/01 10:51:16;;;;;;;9.87;2.73;;;;;;;30.65;100.00;64087.28;5092111;28;20263;-74
2022/06/01 10:53:52;;;;;;;5.60;2.50;;;;;;;29.78;100.00;63995.56;5092359;28;20247;-74
2022/06/01 10:56:22;;;;;;;9.17;2.80;;;;;;;30.55;100.00;64073.75;5091915;28;20201;-74
2022/06/01 10:58:51;;;;;;;7.40;2.73;;;;;;;31.03;100.00;64130.31;5091676;28;20640;-74
2022/06/01 11:01:33;;;;;;;4.70;2.07;;;;;;;31.04;85.30;64131.97;5091350;28;20224;-73
2022/06/01 11:04:24;;;;;;;4.27;1.90;;;;;;;31.12;70.98;64137.50;5091502;28;20237;-73
2022/06/01 11:07:20;;;;;;;5.50;1.90;;;;;;;30.95;83.38;64119.50;5091534;28;20626;-76
2022/06/01 11:09:58;;;;;;;9.10;2.37;;;;;;;31.53;91.17;64185.47;5091759;28;20208;-75
2022/06/01 11:12:35;;;;;;;9.90;2.33;;;;;;;31.98;82.23;64234.06;5092021;28;20243;-75
2022/06/01 11:15:13;;;;;;;5.83;2.13;;;;;;;32.11;74.71;64250.91;5078991;28;20203;-74
2022/06/01 11:17:45;;;;;;;4.17;1.93;;;;;;;32.33;69.09;64272.31;5073252;28;20211;-76
2022/06/01 11:20:27;;;;;;;5.20;2.17;;;;;;;32.30;74.99;64263.75;5091509;28;20292;-74
2022/06/01 11:23:14;;;;;;;4.37;2.07;;;;;;;32.38;72.43;64272.50;5095171;28;20230;-75
2022/06/01 11:25:49;;;;;;;3.67;2.03;;;;;;;32.59;62.38;64294.91;5096120;28;20290;-74
2022/06/01 11:28:29;;;;;;;5.60;2.10;;;;;;;32.93;58.67;64337.34;5095913;28;20209;-74
2022/06/01 11:31:10;;;;;;;6.20;2.07;;;;;;;32.97;67.38;64338.53;5096847;28;20250;-74
2022/06/01 11:33:43;;;;;;;8.77;2.27;;;;;;;32.79;71.86;64322.03;5095624;28;20196;-74
2022/06/01 11:36:23;;;;;;;5.03;2.00;;;;;;;32.42;59.53;64281.59;5095095;28;20258;-75
2022/06/01 11:38:58;;;;;;;3.63;2.10;;;;;;;32.13;65.71;64245.19;5095810;28;20280;-76
2022/06/01 11:41:29;;;;;;;4.93;2.27;;;;;;;32.23;73.25;64261.38;5096108;28;20288;-75
2022/06/01 11:44:04;;;;;;;3.53;2.30;;;;;;;32.36;72.75;64270.31;5095415;28;20674;-76
2022/06/01 11:46:42;;;;;;;6.40;2.30;;;;;;;32.85;78.72;64328.06;5095710;28;20204;-75
2022/06/01 11:49:15;;;;;;;5.60;2.70;;;;;;;33.18;80.22;64364.69;5095695;28;20205;-73
2022/06/01 11:51:49;;;;;;;6.13;2.50;;;;;;;33.35;74.64;64380.09;5094997;28;20214;-73
2022/06/01 11:54:27;;;;;;;6.03;2.57;;;;;;;33.61;74.75;64408.53;5095146;28;20655;-74
2022/06/01 11:56:59;;;;;;;15.70;3.23;;;;;;;33.66;70.21;64416.66;5095162;28;20211;-76
2022/06/01 11:59:35;;;;;;;7.93;2.93;;;;;;;33.60;68.62;64410.09;5097645;28;20216;-73
2022/06/01 12:02:19;;;;;;;7.77;2.30;;;;;;;33.79;61.52;64425.56;5099551;28;20229;-74
2022/06/01 12:04:55;;;;;;;5.23;2.63;;;;;;;33.57;60.91;64406.81;5060992;28;20662;-76
2022/06/01 12:07:29;;;;;;;7.13;2.40;;;;;;;34.19;60.48;64468.25;5089477;28;20639;-75